Time;durP1;ratioP1;P1;durP2;ratioP2;P2;SDS_P1;SDS_P2;PMS_P1;PMS_P2;Temp;Humidity;BMP_temperature;BMP_pressure;BME280_temperature;BME280_humidity;BME280_pressure;Samples;Min_cycle;Max_cycle;Signal;HPM_P1;HPM_P2
2023/01/10 00:00:24;;;;;;;1.08;0.52;;;4.10;99.90;;;;;;5069001;28;20048;-61
2023/01/10 00:02:51;;;;;;;0.85;0.40;;;4.00;99.90;;;;;;5055240;28;20045;-62
2023/01/10 00:05:19;;;;;;;0.85;0.32;;;4.00;99.90;;;;;;5061689;28;20461;-61
2023/01/10 00:07:45;;;;;;;1.73;0.50;;;4.00;99.90;;;;;;5073523;28;20550;-61
2023/01/10 00:10:13;;;;;;;0.45;0.30;;;4.00;99.90;;;;;;5061498;28;20049;-62
2023/01/10 00:15:25;;;;;;;1.30;0.45;;;4.00;99.90;;;;;;5073806;28;20120;-61
2023/01/10 00:17:52;;;;;;;0.90;0.43;;;3.90;99.90;;;;;;5062631;28;20464;-61
2023/01/10 00:20:19;;;;;;;1.73;0.40;;;4.00;99.90;;;;;;5056973;28;20153;-61
2023/01/10 00:22:46;;;;;;;0.73;0.47;;;3.90;99.90;;;;;;5073618;28;20049;-61
2023/01/10 00:25:13;;;;;;;;;;;3.90;99.90;;;;;;5067358;28;20103;-61
2023/01/10 00:27:40;;;;;;;1.27;0.65;;;3.90;99.90;;;;;;5062305;28;19955;-61
2023/01/10 00:30:13;;;;;;;1.38;0.82;;;4.00;99.90;;;;;;5045602;28;20090;-61
2023/01/10 00:32:44;;;;;;;2.70;0.70;;;4.00;99.90;;;;;;5073739;28;20082;-61
2023/01/10 00:35:11;;;;;;;2.00;0.80;;;4.00;99.90;;;;;;5069249;28;20437;-61
2023/01/10 00:37:38;;;;;;;;;;;4.00;99.90;;;;;;5074473;28;20080;-61
2023/01/10 00:40:10;;;;;;;2.25;0.40;;;3.90;99.90;;;;;;5073892;28;19956;-61
2023/01/10 00:45:24;;;;;;;1.80;0.73;;;3.90;99.90;;;;;;5078931;28;20098;-61
2023/01/10 00:47:51;;;;;;;2.50;1.05;;;3.90;99.90;;;;;;5094054;28;20051;-62
2023/01/10 00:50:18;;;;;;;1.60;0.93;;;3.90;99.90;;;;;;5094148;28;20036;-62
2023/01/10 00:52:44;;;;;;;1.75;0.77;;;3.90;99.90;;;;;;5088920;28;20389;-61
2023/01/10 00:55:11;;;;;;;1.00;0.60;;;3.90;99.90;;;;;;5072796;28;20075;-62
2023/01/10 00:57:38;;;;;;;1.20;0.80;;;3.90;99.90;;;;;;5073854;28;20048;-61
2023/01/10 01:00:07;;;;;;;1.67;0.68;;;3.90;99.90;;;;;;5055993;28;20095;-61
2023/01/10 01:02:34;;;;;;;1.17;0.60;;;3.80;99.90;;;;;;5068195;28;20056;-61
2023/01/10 01:05:02;;;;;;;2.08;0.43;;;3.80;99.90;;;;;;5070761;28;20057;-61
2023/01/10 01:07:28;;;;;;;;;;;3.90;99.90;;;;;;5093916;28;20153;-61
2023/01/10 01:12:40;;;;;;;0.80;0.30;;;3.90;99.90;;;;;;5093792;28;20505;-61
2023/01/10 01:15:07;;;;;;;2.10;0.40;;;3.80;99.90;;;;;;5074969;28;20047;-62
2023/01/10 01:17:34;;;;;;;0.95;0.50;;;3.80;99.90;;;;;;5073162;28;20049;-61
2023/01/10 01:20:01;;;;;;;0.77;0.40;;;3.70;99.90;;;;;;5073728;28;20497;-61
2023/01/10 01:22:27;;;;;;;0.63;0.50;;;3.70;99.90;;;;;;5070977;28;20110;-62
2023/01/10 01:24:54;;;;;;;1.17;0.20;;;3.70;99.90;;;;;;5070299;28;20052;-61
2023/01/10 01:27:21;;;;;;;1.25;0.73;;;3.70;99.90;;;;;;5069347;28;20097;-61
2023/01/10 01:29:48;;;;;;;0.40;0.35;;;3.70;99.90;;;;;;5093463;28;20544;-61
2023/01/10 01:32:14;;;;;;;3.33;0.20;;;3.70;99.90;;;;;;5092207;28;20036;-61
2023/01/10 01:34:41;;;;;;;2.30;0.30;;;3.80;99.90;;;;;;5093618;28;20501;-61
2023/01/10 01:37:08;;;;;;;0.40;0.30;;;3.90;99.90;;;;;;5086806;28;20086;-62
2023/01/10 01:39:34;;;;;;;0.75;0.30;;;3.80;99.90;;;;;;5093560;28;20048;-61
2023/01/10 01:42:01;;;;;;;2.88;0.55;;;3.80;99.90;;;;;;5092733;28;20043;-61
2023/01/10 01:44:34;;;;;;;0.60;0.47;;;3.70;99.90;;;;;;5081668;28;20512;-61
2023/01/10 01:47:06;;;;;;;0.63;0.40;;;3.80;99.90;;;;;;5088787;28;20067;-61
2023/01/10 01:49:39;;;;;;;2.25;1.20;;;3.70;99.90;;;;;;5093087;28;20040;-61
2023/01/10 01:52:21;;;;;;;1.80;1.00;;;3.70;99.90;;;;;;5092833;28;20492;-61
2023/01/10 01:54:48;;;;;;;1.05;0.70;;;3.70;99.90;;;;;;5086207;28;20040;-62
2023/01/10 01:57:22;;;;;;;1.92;1.08;;;3.70;99.90;;;;;;5074973;28;20052;-61
2023/01/10 01:59:51;;;;;;;1.13;0.95;;;3.70;99.90;;;;;;5074906;28;20085;-61
2023/01/10 02:02:23;;;;;;;1.73;1.08;;;3.60;99.90;;;;;;5081308;28;20048;-61
2023/01/10 02:04:57;;;;;;;4.10;1.60;;;3.60;99.90;;;;;;5085247;28;20044;-61
2023/01/10 02:07:26;;;;;;;1.45;1.05;;;3.60;99.90;;;;;;5052276;28;20095;-61
2023/01/10 02:10:08;;;;;;;2.80;0.80;;;3.50;99.90;;;;;;5069521;28;20040;-61
2023/01/10 02:12:36;;;;;;;0.77;0.60;;;3.50;99.90;;;;;;5091418;28;20500;-62
2023/01/10 02:15:03;;;;;;;1.02;0.50;;;3.50;99.90;;;;;;5092553;28;20044;-62
2023/01/10 02:17:29;;;;;;;1.38;0.68;;;3.50;99.90;;;;;;5079124;28;20122;-62
2023/01/10 02:19:58;;;;;;;2.08;0.82;;;3.60;99.90;;;;;;5072507;28;20045;-61
2023/01/10 02:23:02;;;;;;;1.10;0.50;;;3.50;99.90;;;;;;5072031;28;20586;-61
2023/01/10 02:25:59;;;;;;;1.95;0.47;;;3.50;99.90;;;;;;5070930;28;20041;-61
2023/01/10 02:28:51;;;;;;;0.43;0.40;;;3.50;99.90;;;;;;5078013;28;20040;-62
2023/01/10 02:31:54;;;;;;;0.60;0.30;;;3.50;99.90;;;;;;5092221;28;20048;-61
2023/01/10 02:34:57;;;;;;;0.40;0.30;;;3.50;99.90;;;;;;5050204;28;20052;-61
2023/01/10 02:37:35;;;;;;;1.85;0.50;;;3.60;99.90;;;;;;5076767;28;20085;-61
2023/01/10 02:40:33;;;;;;;0.60;0.40;;;3.50;99.90;;;;;;5092312;28;20074;-61
2023/01/10 02:43:14;;;;;;;1.05;0.55;;;3.60;99.90;;;;;;5036509;28;20501;-61
2023/01/10 02:46:01;;;;;;;0.82;0.70;;;3.60;99.90;;;;;;5049477;28;20098;-61
2023/01/10 02:48:28;;;;;;;1.52;1.08;;;3.50;99.90;;;;;;5051876;28;20092;-62
2023/01/10 02:51:21;;;;;;;2.40;1.48;;;3.50;99.90;;;;;;5052098;28;20041;-61
2023/01/10 02:54:00;;;;;;;1.30;0.73;;;3.50;99.90;;;;;;5051525;28;20041;-61
2023/01/10 02:56:54;;;;;;;0.20;0.20;;;3.40;99.90;;;;;;5064873;28;20102;-61
2023/01/10 02:59:38;;;;;;;0.70;0.25;;;3.40;99.90;;;;;;5068992;28;20071;-61
2023/01/10 03:02:29;;;;;;;1.55;0.20;;;3.40;99.90;;;;;;5081050;28;20054;-61
2023/01/10 03:05:08;;;;;;;1.10;0.25;;;3.40;99.90;;;;;;5060186;28;20041;-62
2023/01/10 03:07:48;;;;;;;0.40;0.20;;;3.50;99.90;;;;;;5065503;28;20048;-61
2023/01/10 03:10:26;;;;;;;0.50;0.22;;;3.60;99.90;;;;;;5059936;28;20049;-61
2023/01/10 03:13:15;;;;;;;0.50;0.20;;;3.60;99.90;;;;;;5050849;28;20048;-62
2023/01/10 03:15:43;;;;;;;0.20;0.10;;;3.60;99.90;;;;;;5058227;28;20161;-61
2023/01/10 03:18:16;;;;;;;0.35;0.20;;;3.50;99.90;;;;;;5067542;28;20091;-61
2023/01/10 03:20:46;;;;;;;1.05;0.30;;;3.60;99.90;;;;;;5091522;28;20554;-61
2023/01/10 03:23:15;;;;;;;0.60;0.50;;;3.70;99.90;;;;;;5090579;28;20055;-61
2023/01/10 03:25:44;;;;;;;1.55;1.05;;;3.60;99.90;;;;;;5091370;28;20120;-61
2023/01/10 03:28:25;;;;;;;3.15;0.88;;;3.60;99.90;;;;;;5071689;28;20082;-61
2023/01/10 03:30:56;;;;;;;1.80;0.32;;;3.60;99.90;;;;;;5064173;28;20042;-61
2023/01/10 03:33:28;;;;;;;1.77;0.80;;;3.60;99.90;;;;;;5091098;28;20090;-61
2023/01/10 03:35:57;;;;;;;1.63;0.77;;;3.60;99.90;;;;;;5090145;28;20044;-61
2023/01/10 03:38:40;;;;;;;3.70;0.50;;;3.50;99.90;;;;;;5091550;28;20048;-61
2023/01/10 03:41:09;;;;;;;1.17;0.35;;;3.50;99.90;;;;;;5081754;28;20048;-61
2023/01/10 03:46:58;;;;;;;0.70;0.63;;;3.40;99.90;;;;;;5066601;28;20037;-61
2023/01/10 03:49:26;;;;;;;1.35;0.88;;;3.40;99.90;;;;;;5069744;28;20649;-61
2023/01/10 03:51:54;;;;;;;1.02;0.25;;;3.40;99.90;;;;;;5094939;28;20105;-61
2023/01/10 03:54:20;;;;;;;1.02;0.40;;;3.40;99.90;;;;;;5095006;28;20131;-61
2023/01/10 03:56:49;;;;;;;0.75;0.43;;;3.50;99.90;;;;;;5088111;28;20115;-61
2023/01/10 03:59:23;;;;;;;1.95;0.50;;;3.40;99.90;;;;;;5049062;28;20048;-61
2023/01/10 04:01:50;;;;;;;1.20;0.40;;;3.30;99.90;;;;;;5074807;28;20044;-61
2023/01/10 04:04:17;;;;;;;1.40;0.63;;;3.30;99.90;;;;;;5075149;28;20053;-61
2023/01/10 04:06:44;;;;;;;1.48;0.50;;;3.20;99.90;;;;;;5064364;28;20044;-61
2023/01/10 04:09:11;;;;;;;0.52;0.20;;;3.10;99.90;;;;;;5093290;28;20044;-61
2023/01/10 04:11:38;;;;;;;1.40;0.45;;;3.10;99.90;;;;;;5078021;28;20040;-61
2023/01/10 04:14:04;;;;;;;1.67;0.55;;;3.20;99.90;;;;;;5074791;28;20044;-61
2023/01/10 04:16:31;;;;;;;2.33;0.47;;;3.20;99.90;;;;;;5068750;28;20076;-61
2023/01/10 04:18:58;;;;;;;1.27;0.22;;;3.30;99.90;;;;;;5072207;28;20098;-61
2023/01/10 04:21:24;;;;;;;0.40;0.20;;;3.30;99.90;;;;;;5065567;28;20072;-62
2023/01/10 04:23:52;;;;;;;1.70;0.30;;;3.30;99.90;;;;;;5054514;28;20452;-61
2023/01/10 04:26:18;;;;;;;2.03;0.40;;;3.30;99.90;;;;;;5078130;28;20047;-61
2023/01/10 04:28:45;;;;;;;1.00;0.38;;;3.30;99.90;;;;;;5094636;28;20073;-61
2023/01/10 04:31:12;;;;;;;1.52;0.50;;;3.30;99.90;;;;;;5078752;28;20068;-61
2023/01/10 04:33:40;;;;;;;4.22;1.00;;;3.30;99.90;;;;;;5094280;28;20075;-61
2023/01/10 04:36:07;;;;;;;2.50;0.55;;;3.30;99.90;;;;;;5059935;28;20555;-61
2023/01/10 04:38:33;;;;;;;0.55;0.55;;;3.40;99.90;;;;;;5060136;28;20083;-61
2023/01/10 04:41:00;;;;;;;5.97;1.00;;;3.50;99.90;;;;;;5073800;28;20048;-61
2023/01/10 04:43:27;;;;;;;15.30;2.78;;;3.50;99.90;;;;;;5074021;28;20421;-62
2023/01/10 04:45:53;;;;;;;1.98;0.90;;;3.60;99.90;;;;;;5067193;28;20059;-61
2023/01/10 04:48:20;;;;;;;4.30;1.10;;;3.60;99.90;;;;;;5094229;28;20488;-61
2023/01/10 04:50:50;;;;;;;1.10;0.63;;;3.60;99.90;;;;;;5083736;28;20056;-61
2023/01/10 04:53:17;;;;;;;0.70;0.47;;;3.60;99.90;;;;;;5056515;28;20102;-61
2023/01/10 04:55:45;;;;;;;0.60;0.45;;;3.70;99.90;;;;;;5067805;28;20451;-61
2023/01/10 04:58:12;;;;;;;2.03;0.60;;;3.80;99.90;;;;;;5053190;28;20553;-61
2023/01/10 05:00:39;;;;;;;0.50;0.50;;;3.90;99.90;;;;;;5078213;28;20093;-61
2023/01/10 05:03:06;;;;;;;5.25;0.60;;;3.90;99.90;;;;;;5092123;28;20428;-61
2023/01/10 05:05:33;;;;;;;;;;;4.00;99.90;;;;;;5089452;28;20082;-61
2023/01/10 05:08:00;;;;;;;1.30;0.45;;;3.90;99.90;;;;;;5069708;28;19928;-61
2023/01/10 05:10:26;;;;;;;3.83;0.80;;;3.90;99.90;;;;;;5073300;28;20500;-62
2023/01/10 05:12:53;;;;;;;0.88;0.55;;;3.90;99.90;;;;;;5073424;28;20501;-61
2023/01/10 05:15:21;;;;;;;5.82;2.80;;;3.90;99.90;;;;;;5071712;28;20127;-61
2023/01/10 05:17:50;;;;;;;7.10;2.05;;;3.80;99.90;;;;;;5061912;28;20063;-61
2023/01/10 05:20:16;;;;;;;0.63;0.50;;;3.80;99.90;;;;;;5062819;28;20572;-61
2023/01/10 05:22:44;;;;;;;1.63;0.40;;;3.70;99.90;;;;;;5067560;28;20036;-61
2023/01/10 05:25:11;;;;;;;2.17;0.75;;;3.70;99.90;;;;;;5066912;28;20053;-62
2023/01/10 05:27:40;;;;;;;2.83;0.70;;;3.70;99.90;;;;;;5062014;28;20044;-59
2023/01/10 05:30:10;;;;;;;3.72;0.80;;;3.80;99.90;;;;;;5053061;28;20227;-61
2023/01/10 05:32:37;;;;;;;0.98;0.70;;;3.80;99.90;;;;;;5052791;28;20032;-61
2023/01/10 05:35:04;;;;;;;0.90;0.68;;;3.70;99.90;;;;;;5062106;28;20094;-61
2023/01/10 05:37:31;;;;;;;;;;;3.80;99.90;;;;;;5055254;28;20041;-60
2023/01/10 05:39:57;;;;;;;1.30;0.98;;;3.80;99.90;;;;;;5069547;28;19943;-59
2023/01/10 05:42:24;;;;;;;1.90;0.80;;;3.80;99.90;;;;;;5073115;28;20049;-58
2023/01/10 05:44:51;;;;;;;2.58;1.00;;;3.80;99.90;;;;;;5067616;28;20462;-60
2023/01/10 05:47:18;;;;;;;0.70;0.65;;;3.80;99.90;;;;;;5066101;28;20045;-59
2023/01/10 05:49:44;;;;;;;2.50;0.70;;;3.80;99.90;;;;;;5077608;28;20127;-61
2023/01/10 05:52:11;;;;;;;1.02;0.60;;;3.80;99.90;;;;;;5091334;28;20093;-61
2023/01/10 05:54:38;;;;;;;4.13;0.75;;;3.80;99.90;;;;;;5086285;22;20506;-62
2023/01/10 05:57:04;;;;;;;1.50;0.75;;;3.80;99.90;;;;;;5049409;28;20409;-62
2023/01/10 05:59:31;;;;;;;3.95;0.73;;;3.80;99.90;;;;;;5053093;28;20080;-62
2023/01/10 06:01:58;;;;;;;0.88;0.60;;;3.90;99.90;;;;;;5054134;28;20068;-62
2023/01/10 06:04:25;;;;;;;0.85;0.80;;;3.90;99.90;;;;;;5036510;28;20487;-62
2023/01/10 06:06:52;;;;;;;1.55;0.60;;;3.90;99.90;;;;;;5029126;28;20300;-62
2023/01/10 06:09:18;;;;;;;1.20;0.60;;;3.90;99.90;;;;;;5030991;28;20042;-62
2023/01/10 06:11:45;;;;;;;1.10;0.80;;;3.90;99.90;;;;;;5033795;28;20041;-62
2023/01/10 06:14:12;;;;;;;1.23;0.60;;;3.90;99.90;;;;;;5032549;28;20083;-63
2023/01/10 06:16:40;;;;;;;3.40;0.70;;;3.80;99.90;;;;;;5032587;28;20045;-62
2023/01/10 06:19:08;;;;;;;2.05;0.85;;;3.80;99.90;;;;;;5031830;28;20453;-62
2023/01/10 06:21:35;;;;;;;4.72;0.90;;;3.90;99.90;;;;;;5035970;28;20136;-62
2023/01/10 06:24:02;;;;;;;2.75;1.48;;;3.80;99.90;;;;;;5032227;28;20438;-62
2023/01/10 06:26:28;;;;;;;2.47;1.40;;;3.80;99.90;;;;;;5031713;28;20354;-62
2023/01/10 06:28:57;;;;;;;4.55;1.23;;;3.80;99.90;;;;;;5031740;28;20065;-61
2023/01/10 06:31:23;;;;;;;3.70;0.60;;;3.90;99.90;;;;;;5032061;28;20037;-62
2023/01/10 06:33:50;;;;;;;1.63;0.80;;;3.90;99.90;;;;;;5032059;28;20108;-61
2023/01/10 06:36:17;;;;;;;1.58;0.90;;;3.90;99.90;;;;;;5031602;28;20041;-62
2023/01/10 06:38:44;;;;;;;0.50;0.50;;;3.80;99.90;;;;;;5031696;28;20069;-62
2023/01/10 06:41:13;;;;;;;2.05;0.45;;;3.80;99.90;;;;;;5030118;28;20494;-62
2023/01/10 06:43:45;;;;;;;0.75;0.50;;;3.80;99.90;;;;;;5031264;28;20288;-62
2023/01/10 06:46:15;;;;;;;0.40;0.40;;;3.80;99.90;;;;;;5011122;28;20049;-62
2023/01/10 06:48:44;;;;;;;1.25;0.65;;;3.80;99.90;;;;;;5031166;28;20069;-62
2023/01/10 06:51:12;;;;;;;2.00;1.10;;;3.70;99.90;;;;;;5027280;28;20052;-62
2023/01/10 06:53:39;;;;;;;0.90;0.70;;;3.70;99.90;;;;;;5018478;28;20091;-62
2023/01/10 06:56:08;;;;;;;2.00;0.80;;;3.70;99.90;;;;;;5027193;28;20525;-62
2023/01/10 06:58:37;;;;;;;1.92;0.77;;;3.70;99.90;;;;;;5031343;28;20060;-62
2023/01/10 07:01:13;;;;;;;2.00;0.73;;;3.70;99.90;;;;;;5011856;28;20041;-61
2023/01/10 07:03:40;;;;;;;5.88;0.90;;;3.70;99.90;;;;;;5030045;28;20060;-62
2023/01/10 07:06:10;;;;;;;6.63;0.90;;;3.70;99.90;;;;;;5031001;28;20049;-61
2023/01/10 07:08:39;;;;;;;2.63;1.00;;;3.70;99.90;;;;;;5013568;28;20076;-62
2023/01/10 07:11:07;;;;;;;5.68;0.82;;;3.70;99.90;;;;;;5030902;28;20037;-62
2023/01/10 07:13:35;;;;;;;1.05;0.60;;;3.70;99.90;;;;;;5031403;28;20049;-61
2023/01/10 07:16:05;;;;;;;;;;;3.70;99.90;;;;;;5031627;28;20095;-61
2023/01/10 07:18:36;;;;;;;4.25;0.90;;;3.70;99.90;;;;;;5031457;28;20427;-62
2023/01/10 07:21:03;;;;;;;0.55;0.50;;;3.70;99.90;;;;;;5031068;28;20041;-62
2023/01/10 07:23:30;;;;;;;1.00;0.50;;;3.70;99.90;;;;;;5032095;28;20064;-61
2023/01/10 07:26:00;;;;;;;1.63;0.60;;;3.70;99.90;;;;;;5031267;28;20037;-62
2023/01/10 07:28:27;;;;;;;2.22;0.65;;;3.80;99.90;;;;;;5031232;28;20249;-61
2023/01/10 07:30:56;;;;;;;1.23;0.80;;;3.80;99.90;;;;;;5030467;28;20041;-61
2023/01/10 07:33:23;;;;;;;1.98;0.60;;;3.80;99.90;;;;;;5030928;28;20037;-62
2023/01/10 07:35:49;;;;;;;1.67;0.73;;;3.90;99.90;;;;;;5031153;28;20065;-62
2023/01/10 07:38:16;;;;;;;2.92;0.50;;;3.90;99.90;;;;;;5036452;28;20103;-62
2023/01/10 07:40:43;;;;;;;0.75;0.50;;;4.00;99.90;;;;;;5031114;28;20048;-62
2023/01/10 07:43:10;;;;;;;0.35;0.35;;;4.00;99.90;;;;;;5012778;28;20091;-62
2023/01/10 07:45:36;;;;;;;0.70;0.38;;;4.00;99.90;;;;;;5031145;28;20112;-62
2023/01/10 07:48:04;;;;;;;1.02;0.70;;;4.00;99.90;;;;;;5030456;28;20037;-62
2023/01/10 07:50:34;;;;;;;1.30;0.75;;;3.90;99.90;;;;;;5013462;28;20305;-62
2023/01/10 07:53:03;;;;;;;1.23;0.80;;;4.00;99.90;;;;;;5030847;28;20459;-62
2023/01/10 07:55:30;;;;;;;4.10;0.73;;;4.00;99.90;;;;;;5034720;28;20041;-61
2023/01/10 07:57:56;;;;;;;2.00;0.50;;;4.00;99.90;;;;;;5014151;28;20091;-62
2023/01/10 08:00:23;;;;;;;6.47;0.88;;;4.00;99.90;;;;;;5034940;28;20058;-61
2023/01/10 08:02:53;;;;;;;1.60;0.80;;;4.00;99.90;;;;;;5029627;28;20053;-62
2023/01/10 08:05:23;;;;;;;1.95;0.93;;;4.10;99.90;;;;;;5030786;28;20038;-62
2023/01/10 08:07:51;;;;;;;1.35;0.60;;;4.10;99.90;;;;;;5035548;28;20045;-62
2023/01/10 08:10:17;;;;;;;3.15;0.50;;;4.10;99.90;;;;;;5022793;28;20045;-62
2023/01/10 08:12:47;;;;;;;0.55;0.40;;;4.10;99.90;;;;;;5030134;28;20042;-61
2023/01/10 08:15:13;;;;;;;1.60;0.80;;;4.10;99.90;;;;;;5030863;28;20045;-62
2023/01/10 08:17:40;;;;;;;1.13;0.73;;;4.10;99.90;;;;;;5012208;28;20123;-62
2023/01/10 08:20:07;;;;;;;0.90;0.60;;;4.10;99.90;;;;;;5030960;28;20453;-62
2023/01/10 08:22:35;;;;;;;2.63;0.60;;;4.10;99.90;;;;;;5029945;28;20095;-61
2023/01/10 08:25:01;;;;;;;1.30;0.65;;;4.10;99.90;;;;;;5030074;28;20053;-62
2023/01/10 08:27:28;;;;;;;2.17;0.70;;;4.10;99.90;;;;;;5031639;28;20410;-61
2023/01/10 08:29:55;;;;;;;3.15;0.75;;;4.10;99.90;;;;;;5034627;28;20095;-62
2023/01/10 08:32:21;;;;;;;1.50;0.82;;;4.10;99.90;;;;;;5034066;28;20164;-62
2023/01/10 08:34:48;;;;;;;3.33;0.88;;;4.20;99.90;;;;;;5040144;28;20045;-61
2023/01/10 08:37:15;;;;;;;0.63;0.52;;;4.20;99.90;;;;;;5034518;28;20080;-61
2023/01/10 08:39:42;;;;;;;0.82;0.65;;;4.10;99.90;;;;;;5034458;28;20054;-62
2023/01/10 08:42:08;;;;;;;1.13;0.70;;;4.10;99.90;;;;;;5039089;28;20327;-62
2023/01/10 08:44:35;;;;;;;0.60;0.40;;;4.10;99.90;;;;;;5034067;28;20507;-62
2023/01/10 08:47:02;;;;;;;3.10;0.57;;;4.00;99.90;;;;;;5032696;28;20054;-61
2023/01/10 08:49:29;;;;;;;2.97;0.80;;;4.00;99.90;;;;;;5034101;28;20099;-62
2023/01/10 08:51:55;;;;;;;0.68;0.60;;;4.00;99.90;;;;;;5032848;28;20589;-62
2023/01/10 08:54:22;;;;;;;3.67;0.93;;;4.00;99.90;;;;;;5033189;28;20178;-62
2023/01/10 08:56:49;;;;;;;1.40;0.70;;;4.00;99.90;;;;;;5034053;28;20088;-62
2023/01/10 08:59:16;;;;;;;0.70;0.50;;;4.00;99.90;;;;;;5016237;28;20491;-61
2023/01/10 09:01:42;;;;;;;2.55;0.80;;;4.00;99.90;;;;;;5036963;28;20160;-62
2023/01/10 09:04:09;;;;;;;1.38;0.90;;;4.00;99.90;;;;;;5033705;28;20417;-62
2023/01/10 09:06:36;;;;;;;3.08;0.85;;;4.00;99.90;;;;;;5033955;28;20112;-61
2023/01/10 09:09:04;;;;;;;1.15;0.65;;;4.00;99.90;;;;;;5034056;28;20057;-61
2023/01/10 09:11:30;;;;;;;1.67;0.75;;;4.00;99.90;;;;;;5037592;28;20042;-61
2023/01/10 09:13:57;;;;;;;0.80;0.68;;;4.00;99.90;;;;;;5033432;28;20125;-61
2023/01/10 09:16:24;;;;;;;1.35;1.00;;;4.00;99.90;;;;;;5034804;28;20073;-62
2023/01/10 09:18:51;;;;;;;1.88;0.98;;;4.00;99.90;;;;;;5037015;28;20073;-61
2023/01/10 09:21:18;;;;;;;1.70;0.80;;;4.10;99.90;;;;;;5012792;28;20490;-62
2023/01/10 09:23:45;;;;;;;4.70;0.93;;;4.00;99.90;;;;;;5013519;28;20050;-61
2023/01/10 09:26:11;;;;;;;2.17;1.00;;;4.00;99.90;;;;;;5033730;28;20448;-62
2023/01/10 09:28:38;;;;;;;4.53;1.10;;;4.00;99.90;;;;;;5033320;28;20120;-61
2023/01/10 09:31:07;;;;;;;2.47;0.93;;;4.10;99.90;;;;;;5015214;28;20556;-62
2023/01/10 09:33:35;;;;;;;2.60;1.15;;;4.10;99.90;;;;;;5032998;28;20044;-62
2023/01/10 09:36:14;;;;;;;3.50;1.30;;;4.10;99.90;;;;;;5032596;28;20056;-62
2023/01/10 09:38:41;;;;;;;3.95;1.20;;;4.10;99.90;;;;;;5033079;28;20038;-62
2023/01/10 09:41:32;;;;;;;3.55;1.80;;;4.10;99.90;;;;;;5015441;28;20081;-62
2023/01/10 09:44:27;;;;;;;3.60;1.85;;;4.10;99.90;;;;;;5032556;28;20041;-62
2023/01/10 09:47:10;;;;;;;4.03;1.48;;;4.10;99.90;;;;;;5031463;28;20079;-62
2023/01/10 09:49:51;;;;;;;3.03;1.52;;;4.10;99.90;;;;;;5028700;28;20042;-62
2023/01/10 09:52:28;;;;;;;3.08;1.92;;;4.00;99.90;;;;;;5011556;28;20734;-62
2023/01/10 09:54:59;;;;;;;3.22;1.58;;;4.00;99.90;;;;;;5027569;28;20099;-62
2023/01/10 09:57:26;;;;;;;4.50;1.52;;;4.10;99.90;;;;;;5028328;28;20038;-62
2023/01/10 09:59:53;;;;;;;2.50;1.58;;;4.20;99.90;;;;;;5012572;28;20050;-62
2023/01/10 10:02:26;;;;;;;5.13;1.70;;;4.30;99.90;;;;;;5019663;28;20047;-62
2023/01/10 10:05:10;;;;;;;7.10;2.88;;;4.30;99.90;;;;;;5032758;28;20073;-62
2023/01/10 10:07:37;;;;;;;7.45;3.58;;;4.30;99.90;;;;;;5032293;28;20413;-61
2023/01/10 10:10:05;;;;;;;5.45;2.30;;;4.30;99.90;;;;;;5032834;28;20049;-61
2023/01/10 10:12:52;;;;;;;1.73;0.70;;;4.40;99.90;;;;;;5031839;28;20044;-62
2023/01/10 10:15:36;;;;;;;0.75;0.40;;;4.30;99.90;;;;;;5012890;28;20061;-62
2023/01/10 10:18:12;;;;;;;1.27;0.60;;;4.40;99.90;;;;;;5012776;28;20499;-62
2023/01/10 10:20:56;;;;;;;2.70;0.57;;;4.40;99.90;;;;;;5024392;28;20094;-61
2023/01/10 10:23:41;;;;;;;2.58;1.00;;;4.60;99.90;;;;;;5024213;28;20469;-61
2023/01/10 10:26:16;;;;;;;3.30;1.70;;;4.70;99.90;;;;;;5035478;28;20044;-62
2023/01/10 10:28:54;;;;;;;3.50;1.20;;;4.70;99.90;;;;;;5014603;28;20048;-62
2023/01/10 10:31:36;;;;;;;1.83;0.88;;;4.80;99.90;;;;;;5031039;28;20096;-62
2023/01/10 10:34:19;;;;;;;3.50;0.85;;;4.80;99.90;;;;;;5032183;28;20508;-62
2023/01/10 10:36:59;;;;;;;1.58;1.00;;;4.70;99.90;;;;;;5031092;28;20048;-62
2023/01/10 10:39:41;;;;;;;4.32;1.00;;;4.70;99.90;;;;;;5031556;28;20092;-61
2023/01/10 10:42:14;;;;;;;3.15;1.10;;;4.70;99.90;;;;;;5031566;28;20111;-61
2023/01/10 10:44:55;;;;;;;1.00;0.68;;;4.80;99.90;;;;;;5031914;28;20083;-62
2023/01/10 10:47:27;;;;;;;3.60;0.80;;;4.70;99.90;;;;;;5032001;28;20068;-62
2023/01/10 10:50:16;;;;;;;1.88;0.57;;;4.80;99.90;;;;;;5030745;28;20068;-62
2023/01/10 10:52:44;;;;;;;2.25;1.40;;;4.70;99.90;;;;;;5030150;28;20367;-62
2023/01/10 10:55:17;;;;;;;3.25;0.77;;;4.60;99.90;;;;;;5031948;28;20095;-62
2023/01/10 10:57:45;;;;;;;7.35;1.25;;;4.60;99.90;;;;;;5031660;28;20037;-61
2023/01/10 11:00:27;;;;;;;5.85;1.08;;;4.60;99.90;;;;;;5031231;28;20077;-62
2023/01/10 11:03:16;;;;;;;5.65;1.02;;;4.70;99.90;;;;;;5027274;28;20056;-62
2023/01/10 11:05:45;;;;;;;1.55;0.98;;;4.80;99.90;;;;;;5031446;28;20464;-62
2023/01/10 11:08:15;;;;;;;3.85;1.23;;;4.80;99.90;;;;;;5028411;28;20108;-61
2023/01/10 11:10:47;;;;;;;2.17;1.10;;;4.80;99.90;;;;;;5031028;28;20080;-62
2023/01/10 11:13:22;;;;;;;3.90;1.20;;;4.90;99.90;;;;;;5030873;28;20065;-62
2023/01/10 11:15:49;;;;;;;7.45;1.15;;;4.90;99.90;;;;;;5031507;28;20041;-61
2023/01/10 11:18:22;;;;;;;3.38;1.17;;;5.00;99.90;;;;;;5030841;28;20048;-62
2023/01/10 11:20:57;;;;;;;2.70;1.30;;;5.00;99.90;;;;;;5031577;28;20095;-62
2023/01/10 11:23:48;;;;;;;5.68;1.40;;;5.00;99.90;;;;;;5011196;28;20072;-62
2023/01/10 11:26:24;;;;;;;3.85;1.17;;;5.00;99.90;;;;;;5016009;28;20037;-62
2023/01/10 11:29:03;;;;;;;3.47;1.23;;;5.00;99.90;;;;;;5029450;28;20072;-62
2023/01/10 11:31:31;;;;;;;7.38;1.33;;;5.00;99.90;;;;;;5030538;28;20037;-61
2023/01/10 11:33:58;;;;;;;1.95;1.23;;;5.10;99.90;;;;;;5029695;28;20574;-61
2023/01/10 11:36:24;;;;;;;4.15;1.15;;;5.10;99.90;;;;;;5030946;28;20076;-62
2023/01/10 11:39:02;;;;;;;2.35;0.98;;;5.20;99.90;;;;;;5030594;28;20046;-62
2023/01/10 11:41:36;;;;;;;7.57;1.52;;;5.20;99.90;;;;;;5030818;28;20041;-61
2023/01/10 11:44:27;;;;;;;3.13;1.05;;;5.20;99.90;;;;;;5031190;28;20104;-61
2023/01/10 11:46:57;;;;;;;2.38;1.38;;;5.20;99.90;;;;;;5031410;28;20049;-62
2023/01/10 11:49:35;;;;;;;5.22;1.02;;;5.30;99.90;;;;;;5030370;28;20124;-61
2023/01/10 11:52:25;;;;;;;1.88;0.88;;;5.40;99.90;;;;;;5013370;28;20437;-61
2023/01/10 11:54:55;;;;;;;4.38;1.20;;;4.60;99.90;;;;;;5070349;22;20044;-62
2023/01/10 11:57:28;;;;;;;3.17;0.93;;;5.40;99.90;;;;;;5062631;28;20032;-61
2023/01/10 11:59:59;;;;;;;2.70;1.08;;;5.40;99.90;;;;;;5071437;28;20106;-62
2023/01/10 12:02:30;;;;;;;5.15;1.30;;;5.40;99.90;;;;;;5050305;28;20051;-62
2023/01/10 12:05:01;;;;;;;3.72;0.85;;;5.40;99.90;;;;;;5057720;28;20557;-61
2023/01/10 12:07:28;;;;;;;6.72;1.13;;;5.30;99.90;;;;;;5053772;28;20049;-62
2023/01/10 12:09:57;;;;;;;5.97;0.93;;;5.30;99.90;;;;;;5054802;28;20169;-61
2023/01/10 12:12:34;;;;;;;6.50;1.00;;;5.20;99.90;;;;;;5049348;28;20041;-61
2023/01/10 12:15:27;;;;;;;5.07;1.10;;;5.20;99.90;;;;;;5054726;28;20094;-62
2023/01/10 12:18:01;;;;;;;4.88;0.90;;;5.10;99.90;;;;;;5054359;28;20329;-61
2023/01/10 12:20:35;;;;;;;3.58;0.73;;;5.10;99.90;;;;;;5053174;28;20086;-62
2023/01/10 12:23:16;;;;;;;3.28;1.20;;;5.10;99.90;;;;;;5051886;28;20071;-62
2023/01/10 12:25:44;;;;;;;7.13;1.35;;;5.20;99.90;;;;;;5054642;28;20110;-61
2023/01/10 12:28:19;;;;;;;7.28;2.83;;;5.20;99.90;;;;;;5054545;28;20049;-61
2023/01/10 12:30:51;;;;;;;11.25;3.90;;;5.20;99.90;;;;;;5048244;28;20037;-62
2023/01/10 12:33:26;;;;;;;14.45;4.68;;;5.20;99.90;;;;;;5054018;28;20070;-61
2023/01/10 12:36:05;;;;;;;32.20;11.45;;;5.30;99.90;;;;;;5050152;28;20094;-62
2023/01/10 12:39:06;;;;;;;28.08;8.05;;;5.30;99.90;;;;;;5036891;28;20033;-62
2023/01/10 12:44:40;;;;;;;11.93;3.80;;;5.30;99.90;;;;;;5051916;28;20627;-61
2023/01/10 12:47:33;;;;;;;8.95;2.33;;;5.20;99.90;;;;;;5054172;28;20120;-61
2023/01/10 12:50:15;;;;;;;5.05;2.28;;;5.20;99.90;;;;;;5054442;28;20051;-62
2023/01/10 12:52:58;;;;;;;12.63;4.72;;;5.20;99.90;;;;;;5050060;28;20045;-61
2023/01/10 12:55:30;;;;;;;12.63;5.50;;;5.20;99.90;;;;;;5046404;28;20048;-61
2023/01/10 12:58:02;;;;;;;8.48;4.88;;;5.10;99.90;;;;;;5035777;28;20073;-62
2023/01/10 13:00:37;;;;;;;5.78;2.70;;;4.90;99.90;;;;;;5054198;28;20049;-62
2023/01/10 13:03:19;;;;;;;4.70;2.28;;;4.90;99.90;;;;;;5046019;28;20055;-61
2023/01/10 13:05:48;;;;;;;6.82;2.63;;;4.90;99.90;;;;;;5053906;28;20094;-61
2023/01/10 13:08:20;;;;;;;7.25;2.75;;;5.10;99.90;;;;;;5050434;28;20044;-62
2023/01/10 13:10:50;;;;;;;4.47;2.33;;;5.20;99.90;;;;;;5053605;28;20049;-61
2023/01/10 13:13:35;;;;;;;8.00;3.78;;;5.20;99.90;;;;;;5051591;28;20072;-61
2023/01/10 13:16:23;;;;;;;8.55;4.38;;;5.10;99.90;;;;;;5053736;28;20045;-62
2023/01/10 13:18:59;;;;;;;;;;;5.10;99.90;;;;;;5050164;28;20100;-61
2023/01/10 13:21:27;;;;;;;8.10;3.70;;;5.20;99.90;;;;;;5033522;28;20366;-62
2023/01/10 13:24:03;;;;;;;5.90;3.17;;;5.40;99.90;;;;;;5033524;28;20481;-62
2023/01/10 13:26:58;;;;;;;14.15;4.32;;;5.60;99.90;;;;;;5038542;28;20064;-62
2023/01/10 13:29:30;;;;;;;16.35;6.60;;;5.60;99.90;;;;;;5045893;28;20080;-61
2023/01/10 13:32:00;;;;;;;10.82;4.88;;;5.70;99.90;;;;;;5049478;28;20087;-61
2023/01/10 13:34:33;;;;;;;9.32;3.40;;;5.70;99.90;;;;;;5053095;28;20079;-62